Time;durP1;ratioP1;P1;durP2;ratioP2;P2;SDS_P1;SDS_P2;PMS_P1;PMS_P2;Temp;Humidity;BMP_temperature;BMP_pressure;BME280_temperature;BME280_humidity;BME280_pressure;Samples;Min_cycle;Max_cycle;Signal;HPM_P1;HPM_P2
2022/01/22 00:02:22;;;;;;;;;20.75;15.50;;;;;7.20;62.97;103443.09;5002062;28;45381;-61
2022/01/22 00:04:47;;;;;;;;;19.75;16.00;;;;;7.19;62.63;103443.97;5018918;28;45283;-61
2022/01/22 00:07:13;;;;;;;;;20.00;20.00;;;;;7.14;62.46;103435.22;5011782;28;45502;-61
2022/01/22 00:09:44;;;;;;;;;23.25;19.25;;;;;7.13;62.53;103425.63;5001688;28;46052;-61
2022/01/22 00:12:21;;;;;;;;;22.25;20.75;;;;;7.14;62.72;103425.63;5012751;28;45167;-61
2022/01/22 00:14:46;;;;;;;;;22.25;19.00;;;;;7.12;63.02;103429.13;5007766;28;45273;-61
2022/01/22 00:17:12;;;;;;;;;23.75;21.50;;;;;7.12;62.72;103426.50;5021670;28;45411;-61
2022/01/22 00:19:37;;;;;;;;;24.00;21.25;;;;;7.11;62.79;103428.25;5002228;28;46150;-61
2022/01/22 00:22:03;;;;;;;;;23.50;17.25;;;;;7.14;62.78;103432.59;5001851;28;45261;-61
2022/01/22 00:24:36;;;;;;;;;34.50;19.25;;;;;7.13;62.71;103429.13;5001520;28;45228;-61
2022/01/22 00:27:02;;;;;;;;;26.00;18.50;;;;;7.12;63.10;103423.88;5001762;28;45424;-61
2022/01/22 00:29:28;;;;;;;;;23.50;16.00;;;;;7.11;62.62;103416.88;5001654;28;45990;-61
2022/01/22 00:31:53;;;;;;;;;22.00;18.00;;;;;7.12;62.53;103414.28;5001459;28;45332;-61
2022/01/22 00:34:19;;;;;;;;;18.50;18.50;;;;;7.12;63.43;103411.66;5001893;28;45414;-61
2022/01/22 00:36:44;;;;;;;;;19.50;16.75;;;;;7.12;62.72;103410.78;5001685;28;45392;-61
2022/01/22 00:39:09;;;;;;;;;20.00;15.50;;;;;7.12;62.87;103410.78;5004943;28;46355;-61
2022/01/22 00:41:35;;;;;;;;;18.25;16.00;;;;;7.12;63.31;103409.03;5008770;28;45404;-61
2022/01/22 00:44:01;;;;;;;;;19.75;16.25;;;;;7.13;62.79;103409.91;5001730;28;45437;-61
2022/01/22 00:46:27;;;;;;;;;17.25;16.50;;;;;7.13;62.92;103412.53;5001413;28;45472;-61
2022/01/22 00:48:52;;;;;;;;;23.00;15.50;;;;;7.11;62.77;103409.00;5001294;28;45400;-61
2022/01/22 00:51:18;;;;;;;;;21.00;17.00;;;;;7.11;63.13;103407.28;5001308;28;45253;-61
2022/01/22 00:53:44;;;;;;;;;14.00;14.00;;;;;7.13;63.00;103408.16;5001026;28;45401;-61
2022/01/22 00:56:09;;;;;;;;;23.75;16.75;;;;;7.13;62.64;103405.53;5001477;28;45371;-61
2022/01/22 00:58:34;;;;;;;;;20.00;17.00;;;;;7.16;63.07;103412.50;5007749;28;45650;-61
2022/01/22 01:01:00;;;;;;;;;18.25;14.50;;;;;7.17;62.89;103422.09;5019604;28;45240;-61
2022/01/22 01:03:30;;;;;;;;;16.50;16.25;;;;;7.18;63.10;103418.59;5007100;28;45355;-61
2022/01/22 01:05:56;;;;;;;;;14.00;12.25;;;;;7.18;62.50;103419.47;5021195;28;45461;-61
2022/01/22 01:08:21;;;;;;;;;21.50;18.75;;;;;7.19;63.12;103420.38;5001449;28;46161;-61
2022/01/22 01:10:48;;;;;;;;;22.00;19.00;;;;;7.20;62.87;103432.59;5001198;28;45447;-61
2022/01/22 01:13:15;;;;;;;;;19.25;15.00;;;;;7.21;63.48;103416.00;5014730;28;45234;-61
2022/01/22 01:15:55;;;;;;;;;19.00;17.25;;;;;7.23;63.00;103411.63;5013618;28;45519;-58
2022/01/22 01:34:40;;;;;;;;;20.75;20.50;;;;;7.17;63.41;103402.00;5001152;28;45218;-61
2022/01/22 01:37:07;;;;;;;;;26.00;19.75;;;;;7.15;63.34;103400.28;5000711;28;45380;-59
2022/01/22 01:39:34;;;;;;;;;16.50;14.50;;;;;7.19;63.12;103388.91;5007613;28;46144;-59
2022/01/22 01:42:05;;;;;;;;;20.00;16.75;;;;;7.19;63.03;103394.16;5004333;28;45312;-59
2022/01/22 01:44:31;;;;;;;;;18.75;17.50;;;;;7.18;62.87;103385.41;5000998;28;45368;-59
2022/01/22 01:47:00;;;;;;;;;13.50;11.75;;;;;7.18;63.19;103392.41;5000611;28;45333;-59
2022/01/22 01:49:27;;;;;;;;;17.00;14.00;;;;;7.20;63.30;103388.91;5000497;28;45242;-59
2022/01/22 01:51:55;;;;;;;;;16.00;14.50;;;;;7.22;63.57;103400.25;5000549;28;45583;-59
2022/01/22 01:54:31;;;;;;;;;17.00;14.00;;;;;7.22;63.37;103402.00;5011335;28;45483;-59
2022/01/22 01:59:45;;;;;;;;;16.00;15.25;;;;;7.25;63.01;103402.00;5000290;28;45796;-59
2022/01/22 02:02:11;;;;;;;;;15.75;15.00;;;;;7.27;63.28;103408.13;5000370;28;45244;-60
2022/01/22 02:04:37;;;;;;;;;20.50;17.00;;;;;7.29;62.92;103408.97;5015887;28;45232;-60
2022/01/22 02:07:04;;;;;;;;;14.50;14.00;;;;;7.30;63.26;103402.84;5013363;28;45182;-60
2022/01/22 02:09:29;;;;;;;;;14.25;11.75;;;;;7.27;63.06;103400.25;5003526;28;46205;-60
2022/01/22 02:12:04;;;;;;;;;19.00;14.25;;;;;7.25;63.01;103395.00;5012753;28;45313;-60
2022/01/22 02:25:27;;;;;;;;;18.25;12.00;;;;;7.26;63.02;103391.50;5003517;28;45316;-60
2022/01/22 02:27:53;;;;;;;;;16.25;14.75;;;;;7.23;63.32;103391.50;5003842;28;45538;-60
2022/01/22 02:30:22;;;;;;;;;16.00;14.00;;;;;7.21;62.99;103392.41;5003531;28;45407;-60
2022/01/22 02:35:52;;;;;;;;;19.25;15.00;;;;;7.19;63.44;103402.03;5003505;28;45179;-60
2022/01/22 02:38:25;;;;;;;;;23.50;18.00;;;;;7.16;63.10;103395.03;5003411;28;45430;-60
2022/01/22 02:40:51;;;;;;;;;24.25;15.50;;;;;7.16;63.46;103395.03;5014487;28;45461;-60
2022/01/22 02:43:18;;;;;;;;;15.00;14.75;;;;;7.15;63.50;103392.41;5003295;28;45442;-60
2022/01/22 02:45:46;;;;;;;;;18.25;14.00;;;;;7.15;63.77;103389.78;5003425;28;45312;-60
2022/01/22 02:48:12;;;;;;;;;18.00;15.25;;;;;7.13;63.62;103387.19;5003487;28;45291;-60
2022/01/22 02:50:38;;;;;;;;;21.75;15.00;;;;;7.13;63.32;103381.06;5003105;28;45348;-60
2022/01/22 02:53:06;;;;;;;;;16.75;15.25;;;;;7.15;63.74;103379.31;5003280;28;45432;-60
2022/01/22 02:55:32;;;;;;;;;17.75;14.00;;;;;7.16;63.44;103384.53;5003106;28;45391;-60
2022/01/22 02:57:57;;;;;;;;;20.00;13.75;;;;;7.17;63.76;103375.78;5003283;28;45340;-60
2022/01/22 03:00:25;;;;;;;;;19.50;14.00;;;;;7.15;63.61;103371.44;5002947;28;46217;-60
2022/01/22 03:02:51;;;;;;;;;22.00;15.25;;;;;7.15;63.82;103374.94;5003496;28;45182;-60
2022/01/22 03:05:17;;;;;;;;;19.50;14.00;;;;;7.16;63.42;103374.06;5014325;28;45443;-60
2022/01/22 03:07:48;;;;;;;;;13.75;12.00;;;;;7.17;63.41;103372.31;5016376;28;45269;-60
2022/01/22 03:10:15;;;;;;;;;27.50;14.75;;;;;7.19;63.79;103370.56;5002640;28;46274;-60
2022/01/22 03:17:58;;;;;;;;;19.75;11.75;;;;;7.23;63.93;103367.03;5019293;28;45344;-60
2022/01/22 03:27:19;;;;;;;;;14.25;14.00;;;;;7.21;63.77;103381.91;5015863;28;45313;-60
2022/01/22 03:28:54;;;;;;;;;13.00;12.25;;;;;7.24;64.16;103376.66;5003052;28;45219;-60
2022/01/22 03:31:20;;;;;;;;;21.50;15.00;;;;;7.26;63.33;103372.28;5018406;28;45335;-60
2022/01/22 03:33:46;;;;;;;;;12.25;12.25;;;;;7.24;63.60;103379.28;5022357;28;45450;-60
2022/01/22 03:36:11;;;;;;;;;18.50;12.50;;;;;7.24;63.73;103374.03;5018773;28;45304;-60
2022/01/22 03:38:37;;;;;;;;;15.25;14.50;;;;;7.21;63.63;103382.78;5002283;28;45265;-60
2022/01/22 03:41:03;;;;;;;;;14.25;11.75;;;;;7.19;63.78;103388.91;5008235;28;46317;-60
2022/01/22 03:43:29;;;;;;;;;19.00;15.50;;;;;7.17;63.79;103388.91;5022230;28;45439;-60
2022/01/22 03:45:54;;;;;;;;;21.50;14.75;;;;;7.20;64.17;103391.53;5022085;28;45224;-60
2022/01/22 03:48:20;;;;;;;;;15.50;13.00;;;;;7.21;63.90;103389.78;5022350;28;45537;-60
2022/01/22 03:50:45;;;;;;;;;22.00;16.75;;;;;7.22;63.61;103389.78;5020547;28;47616;-60
2022/01/22 03:53:11;;;;;;;;;14.00;11.00;;;;;7.24;63.96;103387.13;5021557;28;45604;-60
2022/01/22 03:55:58;;;;;;;;;13.25;13.25;;;;;7.25;63.81;103383.63;5004797;28;45239;-60
2022/01/22 03:58:24;;;;;;;;;17.75;12.25;;;;;7.27;64.14;103388.03;5015833;28;45274;-60
2022/01/22 04:00:55;;;;;;;;;18.50;14.00;;;;;7.31;64.07;103382.75;5021790;28;45730;-60
2022/01/22 04:03:35;;;;;;;;;13.50;12.00;;;;;7.31;63.71;103390.63;5021892;28;45339;-60
2022/01/22 04:06:22;;;;;;;;;15.50;14.00;;;;;7.28;63.76;103387.13;5007680;28;45269;-60
2022/01/22 04:08:46;;;;;;;;;19.50;12.75;;;;;7.27;63.84;103388.03;5012094;28;45625;-60
2022/01/22 04:11:15;;;;;;;;;16.75;15.00;;;;;7.29;64.01;103385.38;5001773;28;46039;-60
2022/01/22 04:13:41;;;;;;;;;14.50;11.00;;;;;7.27;63.75;103385.41;5002038;28;45311;-60
2022/01/22 04:16:08;;;;;;;;;10.25;10.00;;;;;7.24;64.01;103369.66;5017869;28;45147;-60
2022/01/22 04:27:10;;;;;;;;;13.00;11.50;;;;;7.24;63.92;103368.78;5001958;28;45309;-60
2022/01/22 04:29:35;;;;;;;;;7.50;4.00;;;;;7.26;64.18;103381.00;5008369;28;45320;-61
2022/01/22 04:32:01;;;;;;;;;15.00;11.25;;;;;7.26;64.12;103365.28;5019645;28;45433;-60
2022/01/22 04:34:27;;;;;;;;;18.75;11.25;;;;;7.26;63.75;103369.66;5001576;28;45325;-60
2022/01/22 04:36:52;;;;;;;;;16.00;14.75;;;;;7.20;63.86;103378.44;5015303;28;45395;-60
2022/01/22 04:39:22;;;;;;;;;18.25;13.75;;;;;7.21;64.01;103377.53;5018003;28;45278;-60
2022/01/22 04:41:49;;;;;;;;;19.25;12.75;;;;;7.20;63.91;103369.69;5006899;28;46071;-60
2022/01/22 04:44:15;;;;;;;;;17.75;14.75;;;;;7.21;63.94;103372.31;5001677;28;45384;-60
2022/01/22 04:49:14;;;;;;;;;15.50;15.00;;;;;7.23;63.89;103385.41;5001471;28;45320;-60
2022/01/22 04:57:09;;;;;;;;;15.00;13.75;;;;;7.19;63.64;103373.19;5001549;28;45221;-60
2022/01/22 04:59:34;;;;;;;;;30.00;16.50;;;;;7.17;63.95;103373.16;5015939;28;45475;-60
2022/01/22 05:02:00;;;;;;;;;21.00;17.00;;;;;7.20;63.77;103381.03;5011649;28;45388;-60
2022/01/22 05:04:25;;;;;;;;;19.50;17.25;;;;;7.18;63.61;103372.28;5014741;28;45317;-60
2022/01/22 05:06:51;;;;;;;;;19.25;15.50;;;;;7.20;63.76;103374.94;5014152;28;45416;-60
2022/01/22 05:09:16;;;;;;;;;19.00;15.50;;;;;7.19;63.99;103384.56;5000863;28;45428;-60
2022/01/22 05:11:42;;;;;;;;;19.50;18.50;;;;;7.20;64.14;103375.81;5001145;28;45402;-60
2022/01/22 05:14:07;;;;;;;;;21.25;17.75;;;;;7.23;63.88;103382.78;5000972;28;45450;-60
2022/01/22 05:16:33;;;;;;;;;23.00;20.50;;;;;7.23;63.77;103386.28;5013638;28;45229;-60
2022/01/22 05:19:09;;;;;;;;;19.25;17.50;;;;;7.23;63.90;103374.91;5013004;28;45456;-60
2022/01/22 05:21:37;;;;;;;;;23.25;19.75;;;;;7.24;63.89;103377.53;5001169;28;46240;-60
2022/01/22 05:24:07;;;;;;;;;20.00;18.50;;;;;7.29;64.05;103374.91;5000597;28;45265;-60
2022/01/22 05:39:21;;;;;;;;;25.50;20.50;;;;;7.26;63.80;103386.25;5006073;28;45215;-60
2022/01/22 05:41:47;;;;;;;;;26.50;19.75;;;;;7.24;63.53;103392.38;5007640;28;45218;-60
2022/01/22 05:44:13;;;;;;;;;25.75;20.25;;;;;7.25;63.84;103396.75;5003138;28;45222;-60
2022/01/22 05:46:39;;;;;;;;;28.25;23.00;;;;;7.24;63.94;103390.63;5004207;28;45291;-60
2022/01/22 05:49:05;;;;;;;;;21.75;17.50;;;;;7.23;63.85;103388.88;5004392;28;45293;-60
2022/01/22 05:51:32;;;;;;;;;26.50;21.25;;;;;7.23;63.92;103393.25;5003946;28;45396;-60
2022/01/22 05:59:36;;;;;;;;;18.00;15.50;;;;;7.28;63.82;103395.00;5004028;28;45400;-61
2022/01/22 06:02:04;;;;;;;;;28.75;20.50;;;;;7.32;63.98;103394.97;5003881;28;45328;-61
2022/01/22 06:04:29;;;;;;;;;26.75;22.75;;;;;7.36;63.82;103404.59;5018394;28;45210;-61
2022/01/22 06:06:55;;;;;;;;;35.00;23.50;;;;;7.36;63.89;103396.72;5016146;28;45531;-61
2022/01/22 06:09:20;;;;;;;;;26.00;20.50;;;;;7.34;64.13;103401.09;5003685;28;45218;-61
2022/01/22 06:12:03;;;;;;;;;29.00;21.25;;;;;7.36;63.83;103407.22;5003863;28;45647;-61
2022/01/22 06:14:28;;;;;;;;;22.00;21.75;;;;;7.36;63.59;103407.22;5006509;28;45167;-61
2022/01/22 06:16:54;;;;;;;;;24.25;20.00;;;;;7.35;63.96;103398.47;5023589;28;45562;-61
2022/01/22 06:19:19;;;;;;;;;24.50;19.50;;;;;7.34;63.30;103398.47;5006502;28;45337;-61
2022/01/22 06:21:45;;;;;;;;;16.75;15.00;;;;;7.35;63.43;103405.47;5003829;28;46164;-61
2022/01/22 06:24:12;;;;;;;;;25.25;23.75;;;;;7.37;63.59;103391.47;5007421;28;45289;-61
2022/01/22 06:26:38;;;;;;;;;28.50;21.25;;;;;7.40;63.62;103390.59;5023591;28;45399;-61
2022/01/22 06:29:04;;;;;;;;;28.50;24.00;;;;;7.37;63.33;103399.34;5005145;28;45374;-61
2022/01/22 06:31:30;;;;;;;;;23.50;20.25;;;;;7.35;63.61;103401.09;5003363;28;45434;-61
2022/01/22 06:33:58;;;;;;;;;23.25;19.50;;;;;7.36;63.49;103400.22;5013639;28;45312;-61
2022/01/22 06:36:23;;;;;;;;;27.75;22.25;;;;;7.37;63.66;103404.59;5023300;28;45340;-61
2022/01/22 06:38:55;;;;;;;;;30.50;22.00;;;;;7.41;64.12;103408.06;5023290;28;45399;-61
2022/01/22 06:44:05;;;;;;;;;34.75;24.50;;;;;7.43;63.51;103401.09;5011172;28;45400;-61
2022/01/22 06:46:31;;;;;;;;;22.25;16.25;;;;;7.41;63.65;103408.94;5023253;28;45329;-61
2022/01/22 06:48:56;;;;;;;;;30.50;24.50;;;;;7.40;63.71;103407.19;5023474;28;45508;-61
2022/01/22 06:51:22;;;;;;;;;30.25;24.25;;;;;7.43;64.04;103409.81;5022927;28;45976;-61
2022/01/22 06:53:49;;;;;;;;;23.25;17.00;;;;;7.44;63.68;103411.56;5022753;28;45359;-61
2022/01/22 06:56:20;;;;;;;;;26.75;20.75;;;;;7.46;63.34;103406.31;5023283;28;45449;-61
2022/01/22 06:58:46;;;;;;;;;32.25;23.75;;;;;7.44;63.28;103408.94;5023185;28;45475;-61
2022/01/22 07:01:11;;;;;;;;;26.00;22.00;;;;;7.42;63.46;103415.91;5022608;28;45341;-61
2022/01/22 07:03:37;;;;;;;;;29.50;22.75;;;;;7.43;63.72;103416.81;5020326;28;45427;-61
2022/01/22 07:06:02;;;;;;;;;25.75;21.25;;;;;7.43;62.88;103416.81;5023017;28;45467;-61
2022/01/22 07:08:28;;;;;;;;;29.25;28.25;;;;;7.39;63.87;103408.06;5022775;28;45323;-61
2022/01/22 07:10:54;;;;;;;;;30.25;25.00;;;;;7.38;63.58;103410.69;5022403;28;45440;-61
2022/01/22 07:13:19;;;;;;;;;31.50;25.75;;;;;7.42;63.86;103415.91;5003078;28;45254;-61
2022/01/22 07:15:45;;;;;;;;;29.50;25.25;;;;;7.43;63.42;103414.19;5015678;28;45420;-61
2022/01/22 07:18:13;;;;;;;;;31.25;24.00;;;;;7.44;63.10;103419.44;5003159;28;45150;-61
2022/01/22 07:20:40;;;;;;;;;27.00;23.25;;;;;7.44;63.38;103410.69;5002837;28;45383;-61
2022/01/22 07:23:54;;;;;;;;;25.75;22.25;;;;;7.43;63.51;103409.81;5002631;28;45343;-61
2022/01/22 07:26:08;;;;;;;;;27.50;25.75;;;;;7.41;63.42;103416.78;5002727;28;45472;-61
2022/01/22 07:28:34;;;;;;;;;29.25;23.00;;;;;7.40;63.20;103420.28;5003041;28;45278;-61
2022/01/22 07:31:00;;;;;;;;;29.50;28.25;;;;;7.40;63.29;103427.28;5002455;28;45396;-61
2022/01/22 07:33:28;;;;;;;;;32.00;20.00;;;;;7.40;63.17;103422.91;5002656;28;45379;-61
2022/01/22 07:35:53;;;;;;;;;30.25;25.00;;;;;7.42;62.95;103420.28;5002602;28;45324;-61
2022/01/22 07:38:20;;;;;;;;;32.00;28.75;;;;;7.42;63.48;103428.16;5002586;28;45420;-61
2022/01/22 07:40:45;;;;;;;;;33.25;24.00;;;;;7.41;63.69;103423.78;5013416;28;45305;-61
2022/01/22 07:43:11;;;;;;;;;24.00;21.00;;;;;7.43;63.43;103424.69;5001165;28;45455;-61
2022/01/22 07:45:37;;;;;;;;;30.75;25.50;;;;;7.45;63.56;103430.78;5002386;28;45210;-61
2022/01/22 07:48:03;;;;;;;;;31.75;27.50;;;;;7.46;63.46;103435.16;5002578;28;45562;-61
2022/01/22 07:50:28;;;;;;;;;27.50;23.00;;;;;7.46;63.81;103428.16;5002283;28;46498;-61
2022/01/22 07:52:54;;;;;;;;;30.25;26.50;;;;;7.49;63.62;103429.88;5002421;28;45348;-61
2022/01/22 07:55:22;;;;;;;;;37.00;28.25;;;;;7.50;63.49;103442.13;5002198;28;45467;-62
2022/01/22 07:57:47;;;;;;;;;22.50;21.25;;;;;7.51;63.13;103438.66;5002480;28;45450;-61
2022/01/22 08:00:16;;;;;;;;;29.25;23.75;;;;;7.48;63.53;103431.63;5002113;28;45349;-61
2022/01/22 08:02:42;;;;;;;;;31.25;27.25;;;;;7.49;63.58;103433.38;5001983;28;45297;-61
2022/01/22 08:05:08;;;;;;;;;30.25;24.50;;;;;7.56;63.73;103439.47;5001081;28;45162;-61
2022/01/22 08:07:34;;;;;;;;;27.50;24.00;;;;;7.58;63.60;103442.97;5002334;28;45258;-61
2022/01/22 08:09:59;;;;;;;;;30.25;25.00;;;;;7.59;63.43;103441.25;5001791;28;46144;-61
2022/01/22 08:12:25;;;;;;;;;26.25;23.75;;;;;7.57;63.46;103447.34;5002086;28;45487;-61
2022/01/22 08:14:51;;;;;;;;;29.25;24.75;;;;;7.59;63.58;103446.50;5007766;28;45367;-61
2022/01/22 08:17:17;;;;;;;;;37.25;26.25;;;;;7.61;63.53;103440.34;5009194;28;45367;-61
2022/01/22 08:19:42;;;;;;;;;31.50;27.00;;;;;7.63;63.35;103442.97;5001643;28;46206;-61
2022/01/22 08:22:08;;;;;;;;;33.75;25.50;;;;;7.67;63.53;103449.97;5001825;28;45269;-61
2022/01/22 08:24:34;;;;;;;;;29.75;24.75;;;;;7.69;63.38;103456.94;5001643;28;45439;-61
2022/01/22 08:27:31;;;;;;;;;31.00;26.50;;;;;7.72;63.59;103461.28;5002072;28;45507;-62
2022/01/22 08:29:57;;;;;;;;;29.50;25.00;;;;;7.75;63.96;103450.81;5011776;28;46062;-61
2022/01/22 08:37:58;;;;;;;;;33.00;26.25;;;;;7.78;63.26;103459.50;5021557;28;45364;-61
2022/01/22 08:40:24;;;;;;;;;34.75;29.25;;;;;7.78;62.93;103454.28;5017823;28;45304;-61
2022/01/22 08:42:50;;;;;;;;;33.75;25.25;;;;;7.80;63.00;103457.75;5001657;28;45209;-62
2022/01/22 08:45:15;;;;;;;;;30.25;25.50;;;;;7.81;63.06;103462.13;5001621;28;45274;-61
2022/01/22 08:47:41;;;;;;;;;31.75;26.00;;;;;7.78;62.83;103467.38;5001778;28;45511;-61
2022/01/22 08:50:07;;;;;;;;;22.25;19.25;;;;;7.80;63.00;103481.38;5001334;28;46343;-61
2022/01/22 08:52:35;;;;;;;;;33.50;27.00;;;;;7.83;63.19;103477.88;5000332;28;45424;-61
2022/01/22 08:55:05;;;;;;;;;34.25;30.75;;;;;7.86;63.02;103472.59;5001384;28;45344;-61
2022/01/22 08:57:31;;;;;;;;;32.00;30.25;;;;;7.88;62.79;103475.22;5001611;28;45536;-62
2022/01/22 08:59:56;;;;;;;;;31.25;25.25;;;;;7.87;62.77;103476.97;5001224;28;45397;-61
2022/01/22 09:02:22;;;;;;;;;36.50;25.50;;;;;7.88;62.48;103490.97;5001289;28;45273;-61
2022/01/22 09:04:48;;;;;;;;;33.25;28.75;;;;;7.84;62.86;103487.50;5001391;28;45300;-61
2022/01/22 09:07:13;;;;;;;;;27.75;23.25;;;;;7.86;62.67;103492.72;5001596;28;45254;-61
2022/01/22 09:09:39;;;;;;;;;26.25;26.25;;;;;7.80;62.46;103496.25;5000903;28;45309;-61
2022/01/22 09:12:06;;;;;;;;;29.25;25.50;;;;;7.82;62.53;103499.75;5001311;28;45282;-61
2022/01/22 09:14:33;;;;;;;;;33.50;22.75;;;;;7.77;62.33;103499.75;5004530;28;45285;-61
2022/01/22 09:16:59;;;;;;;;;30.50;26.00;;;;;7.76;62.58;103495.38;5010549;28;45553;-61
2022/01/22 09:19:33;;;;;;;;;31.50;26.50;;;;;7.79;62.55;103498.00;5000900;28;45464;-61
2022/01/22 09:22:01;;;;;;;;;29.75;27.75;;;;;7.79;62.35;103492.75;5001057;28;45333;-61
2022/01/22 09:24:26;;;;;;;;;27.50;23.75;;;;;7.79;62.34;103490.13;5000867;28;45364;-61
2022/01/22 09:26:52;;;;;;;;;40.25;31.75;;;;;7.78;62.41;103492.75;5001213;28;45296;-61
2022/01/22 09:29:17;;;;;;;;;38.50;28.50;;;;;7.78;62.21;103495.38;5000696;28;45365;-61
2022/01/22 09:31:44;;;;;;;;;38.75;27.25;;;;;7.77;62.20;103497.13;5000836;28;45317;-61
2022/01/22 09:34:10;;;;;;;;;30.50;28.00;;;;;7.79;62.48;103500.63;5001107;28;45508;-61
2022/01/22 09:36:36;;;;;;;;;25.50;22.00;;;;;7.84;62.40;103511.97;5001118;28;45514;-61
2022/01/22 09:39:03;;;;;;;;;26.50;21.25;;;;;7.88;62.28;103517.22;5003401;28;45328;-62
2022/01/22 09:41:29;;;;;;;;;28.25;26.25;;;;;7.92;62.07;103516.34;5009076;28;45386;-61
2022/01/22 09:43:56;;;;;;;;;41.75;31.75;;;;;7.96;62.13;103518.94;5000737;28;45183;-61
2022/01/22 09:46:22;;;;;;;;;30.25;23.50;;;;;7.99;61.64;103521.56;5000831;28;45424;-61
2022/01/22 09:48:50;;;;;;;;;35.75;25.00;;;;;8.02;61.66;103518.03;4999253;28;46269;-61
2022/01/22 09:51:16;;;;;;;;;35.25;25.50;;;;;8.00;61.79;103515.44;5000534;28;45324;-62
2022/01/22 09:53:43;;;;;;;;;34.75;25.50;;;;;8.02;61.99;103513.66;5000485;28;45304;-61
2022/01/22 09:56:09;;;;;;;;;34.00;26.50;;;;;8.06;61.81;103512.78;5000038;28;45304;-61
2022/01/22 09:58:35;;;;;;;;;34.75;25.75;;;;;8.10;61.72;103511.00;5000444;28;45320;-61
2022/01/22 10:01:25;;;;;;;;;29.00;24.50;;;;;8.10;61.45;103509.25;5000385;28;45251;-61
2022/01/22 10:03:54;;;;;;;;;33.25;25.00;;;;;8.15;61.43;103517.13;5000810;28;45341;-61
2022/01/22 10:06:22;;;;;;;;;29.00;23.00;;;;;8.19;61.54;103507.44;5000585;28;45484;-61
2022/01/22 10:08:49;;;;;;;;;25.75;23.25;;;;;8.25;61.46;103518.81;5000264;28;46139;-62
2022/01/22 10:11:21;;;;;;;;;29.50;25.50;;;;;8.27;61.23;103519.66;5000233;28;45440;-61
2022/01/22 10:13:48;;;;;;;;;33.25;25.75;;;;;8.25;61.18;103520.56;5000734;28;45242;-61
2022/01/22 10:16:24;;;;;;;;;23.00;21.75;;;;;8.26;61.45;103519.69;5013080;28;45272;-59
2022/01/22 10:19:19;;;;;;;;;32.50;26.75;;;;;8.27;61.25;103526.66;4999984;28;46122;-61
2022/01/22 10:21:56;;;;;;;;;28.00;24.25;;;;;8.30;61.47;103530.16;5009841;28;45467;-61
2022/01/22 10:24:22;;;;;;;;;27.25;25.00;;;;;8.30;61.02;103524.03;5019377;28;45416;-61
2022/01/22 10:26:47;;;;;;;;;32.75;25.75;;;;;8.31;60.87;103520.53;5020453;28;45365;-61
2022/01/22 10:29:19;;;;;;;;;32.00;23.50;;;;;8.28;60.83;103529.28;5023114;28;45473;-62
2022/01/22 10:31:46;;;;;;;;;37.25;30.00;;;;;8.28;60.87;103533.66;5023466;28;45461;-61
2022/01/22 10:34:12;;;;;;;;;29.00;23.25;;;;;8.27;60.79;103535.41;5023350;28;45327;-61
2022/01/22 10:36:39;;;;;;;;;30.00;24.75;;;;;8.31;60.83;103531.91;5023699;28;45277;-61
2022/01/22 10:39:23;;;;;;;;;29.75;26.75;;;;;8.35;61.01;103531.03;5022466;28;46357;-61
2022/01/22 10:41:50;;;;;;;;;26.50;23.50;;;;;8.41;60.94;103535.38;5008628;28;45313;-61
2022/01/22 10:44:21;;;;;;;;;29.50;23.50;;;;;8.45;60.47;103528.34;5003753;28;45258;-61
2022/01/22 10:46:51;;;;;;;;;31.50;25.25;;;;;8.53;60.75;103529.19;5003252;28;45398;-61
2022/01/22 10:49:26;;;;;;;;;40.75;29.75;;;;;8.58;60.56;103533.53;5003360;28;45427;-61
2022/01/22 10:51:56;;;;;;;;;28.00;24.50;;;;;8.57;60.34;103528.28;5003378;28;45554;-61
2022/01/22 10:54:31;;;;;;;;;27.50;21.50;;;;;8.58;60.62;103524.78;5003316;28;45427;-61
2022/01/22 10:57:10;;;;;;;;;27.75;25.00;;;;;8.64;60.16;103520.38;5003286;28;45308;-61
2022/01/22 10:59:36;;;;;;;;;22.00;20.00;;;;;8.71;59.46;103517.69;5003145;28;46222;-61
2022/01/22 11:02:04;;;;;;;;;27.75;21.25;;;;;8.72;59.88;103516.81;5003084;28;45261;-62
2022/01/22 11:04:40;;;;;;;;;26.75;23.50;;;;;8.77;59.81;103518.53;5003126;28;45420;-61
2022/01/22 11:07:07;;;;;;;;;33.75;29.00;;;;;8.83;60.05;103515.84;5003264;28;45346;-61
2022/01/22 11:09:34;;;;;;;;;33.50;24.00;;;;;8.84;59.73;103520.22;5002741;28;45996;-61
2022/01/22 11:12:05;;;;;;;;;34.25;27.50;;;;;8.84;59.33;103521.97;5003041;28;45380;-61
2022/01/22 11:14:33;;;;;;;;;27.25;20.25;;;;;8.86;59.27;103523.72;5006020;28;45368;-61
2022/01/22 11:16:59;;;;;;;;;24.00;22.50;;;;;8.89;59.64;103515.81;5012094;28;45312;-61
2022/01/22 11:19:30;;;;;;;;;31.00;25.50;;;;;8.94;59.64;103514.00;5002638;28;46115;-61
2022/01/22 11:21:57;;;;;;;;;34.25;26.50;;;;;8.98;59.02;103516.59;5001404;28;45376;-61
2022/01/22 11:24:26;;;;;;;;;31.25;23.50;;;;;8.97;60.09;103507.84;5002540;28;45380;-62
2022/01/22 11:26:54;;;;;;;;;28.00;23.00;;;;;9.02;58.85;103506.06;5002938;28;45500;-61
2022/01/22 11:29:30;;;;;;;;;32.25;26.25;;;;;9.05;59.23;103506.03;5002465;28;45542;-61
2022/01/22 11:31:58;;;;;;;;;29.75;22.75;;;;;9.01;59.41;103506.97;5002434;28;45400;-62
2022/01/22 11:34:27;;;;;;;;;28.25;21.50;;;;;9.01;59.38;103498.19;5002816;28;45519;-61
2022/01/22 11:37:02;;;;;;;;;25.00;19.75;;;;;9.01;59.26;103498.19;5002556;28;45369;-61
2022/01/22 11:39:28;;;;;;;;;28.00;20.75;;;;;9.00;58.99;103499.06;5008543;28;45465;-61
2022/01/22 11:41:57;;;;;;;;;21.00;19.75;;;;;8.98;58.71;103493.81;5006532;28;45395;-61
2022/01/22 11:44:33;;;;;;;;;24.00;19.25;;;;;8.95;58.81;103502.63;5002738;28;45273;-61
2022/01/22 11:47:16;;;;;;;;;23.50;20.00;;;;;8.92;58.93;103496.50;5002436;28;45340;-61
2022/01/22 11:50:07;;;;;;;;;21.50;18.25;;;;;8.95;59.21;103485.97;5002418;28;46052;-62
2022/01/22 11:52:37;;;;;;;;;25.50;19.50;;;;;9.01;58.98;103482.44;5002634;28;45414;-62
2022/01/22 11:55:13;;;;;;;;;20.25;16.50;;;;;9.04;58.45;103490.28;5002144;28;45361;-61
2022/01/22 11:57:40;;;;;;;;;24.75;17.75;;;;;9.07;59.00;103492.88;5002652;28;45312;-61
2022/01/22 12:00:29;;;;;;;;;22.50;18.00;;;;;9.13;58.79;103491.06;5002078;28;45253;-62
2022/01/22 12:03:03;;;;;;;;;24.75;21.25;;;;;9.16;58.52;103490.16;5002053;28;45167;-62
2022/01/22 12:05:30;;;;;;;;;28.00;23.75;;;;;9.18;58.90;103485.75;5002367;28;45457;-62
2022/01/22 12:08:00;;;;;;;;;25.00;21.50;;;;;9.22;58.60;103479.56;5002012;28;45297;-61
2022/01/22 12:10:43;;;;;;;;;25.50;22.75;;;;;9.25;58.08;103482.19;5002074;28;45233;-62
2022/01/22 12:16:41;;;;;;;;;26.00;23.00;;;;;9.31;58.13;103476.84;5012870;28;45400;-61
2022/01/22 12:19:46;;;;;;;;;25.25;19.50;;;;;9.33;58.21;103471.59;5001947;28;45294;-61
2022/01/22 12:22:31;;;;;;;;;27.25;20.50;;;;;9.39;58.44;103472.38;5002060;28;45436;-61
2022/01/22 12:25:09;;;;;;;;;22.75;18.25;;;;;9.43;58.59;103466.22;5009722;28;45346;-61
2022/01/22 12:27:54;;;;;;;;;32.00;27.50;;;;;9.44;58.57;103462.69;5021842;28;45162;-61
2022/01/22 12:30:44;;;;;;;;;27.25;20.75;;;;;9.48;58.29;103459.16;5021869;28;45413;-61
2022/01/22 12:33:13;;;;;;;;;24.75;18.50;;;;;9.51;58.22;103460.88;5021597;28;45283;-61
2022/01/22 12:35:44;;;;;;;;;24.50;22.25;;;;;9.56;58.25;103453.81;5021684;28;45305;-61
2022/01/22 12:38:36;;;;;;;;;24.75;22.00;;;;;9.53;57.57;103461.72;5021303;28;45283;-61
2022/01/22 12:44:06;;;;;;;;;27.75;24.00;;;;;9.60;58.22;103449.34;5001458;28;46125;-61
2022/01/22 12:46:33;;;;;;;;;29.25;23.25;;;;;9.59;57.76;103450.25;5001270;28;45172;-61
2022/01/22 12:49:00;;;;;;;;;27.75;25.50;;;;;9.58;57.95;103451.16;5008061;28;45318;-61
2022/01/22 12:51:27;;;;;;;;;27.75;22.75;;;;;9.62;57.96;103444.94;5020353;28;45579;-61
2022/01/22 12:53:53;;;;;;;;;32.75;29.00;;;;;9.65;58.00;103442.28;5020840;28;46199;-61
2022/01/22 12:59:01;;;;;;;;;30.75;25.75;;;;;9.61;58.05;103445.84;5021396;28;45299;-61
2022/01/22 13:01:29;;;;;;;;;22.75;18.25;;;;;9.60;57.49;103434.44;5021019;28;45504;-60